sensor_id;sensor_type;location;lat;lon;timestamp;P1;durP1;ratioP1;P2;durP2;ratioP2
12591;SDS011;6361;52.120;5.108;2023-09-07T00:00:58;10.25;;;6.05;;
12591;SDS011;6361;52.120;5.108;2023-09-07T00:03:25;6.40;;;5.72;;
12591;SDS011;6361;52.120;5.108;2023-09-07T00:05:51;7.88;;;6.38;;
12591;SDS011;6361;52.120;5.108;2023-09-07T00:08:16;6.90;;;5.88;;
12591;SDS011;6361;52.120;5.108;2023-09-07T00:10:42;8.82;;;5.57;;
12591;SDS011;6361;52.120;5.108;2023-09-07T00:13:07;9.93;;;6.20;;
12591;SDS011;6361;52.120;5.108;2023-09-07T00:15:38;7.18;;;5.82;;
12591;SDS011;6361;52.120;5.108;2023-09-07T00:18:04;9.48;;;6.53;;
12591;SDS011;6361;52.120;5.108;2023-09-07T00:20:29;8.07;;;6.20;;
12591;SDS011;6361;52.120;5.108;2023-09-07T00:22:55;8.02;;;6.53;;
12591;SDS011;6361;52.120;5.108;2023-09-07T00:25:20;8.63;;;6.60;;
12591;SDS011;6361;52.120;5.108;2023-09-07T00:27:46;6.80;;;6.05;;
12591;SDS011;6361;52.120;5.108;2023-09-07T00:30:11;9.73;;;6.57;;
12591;SDS011;6361;52.120;5.108;2023-09-07T00:32:37;8.32;;;6.53;;
12591;SDS011;6361;52.120;5.108;2023-09-07T00:35:03;10.15;;;6.57;;
12591;SDS011;6361;52.120;5.108;2023-09-07T00:37:30;7.53;;;5.90;;
12591;SDS011;6361;52.120;5.108;2023-09-07T00:39:55;7.57;;;5.90;;
12591;SDS011;6361;52.120;5.108;2023-09-07T00:42:21;8.38;;;6.53;;
12591;SDS011;6361;52.120;5.108;2023-09-07T00:44:46;8.48;;;6.55;;
12591;SDS011;6361;52.120;5.108;2023-09-07T00:47:13;8.10;;;6.60;;
12591;SDS011;6361;52.120;5.108;2023-09-07T00:49:39;11.07;;;6.78;;
12591;SDS011;6361;52.120;5.108;2023-09-07T00:52:05;8.32;;;6.00;;
12591;SDS011;6361;52.120;5.108;2023-09-07T00:54:30;7.32;;;6.30;;
12591;SDS011;6361;52.120;5.108;2023-09-07T00:56:56;7.50;;;6.28;;
12591;SDS011;6361;52.120;5.108;2023-09-07T00:59:22;7.97;;;6.65;;
12591;SDS011;6361;52.120;5.108;2023-09-07T01:01:48;7.32;;;6.13;;
12591;SDS011;6361;52.120;5.108;2023-09-07T01:04:14;8.65;;;6.70;;
12591;SDS011;6361;52.120;5.108;2023-09-07T01:06:40;10.75;;;6.82;;
12591;SDS011;6361;52.120;5.108;2023-09-07T01:09:17;9.68;;;6.32;;
12591;SDS011;6361;52.120;5.108;2023-09-07T01:11:44;8.68;;;7.00;;
12591;SDS011;6361;52.120;5.108;2023-09-07T01:14:10;9.15;;;6.55;;
12591;SDS011;6361;52.120;5.108;2023-09-07T01:16:35;7.28;;;6.53;;
12591;SDS011;6361;52.120;5.108;2023-09-07T01:19:03;8.68;;;6.32;;
12591;SDS011;6361;52.120;5.108;2023-09-07T01:21:34;7.63;;;6.82;;
12591;SDS011;6361;52.120;5.108;2023-09-07T01:24:01;8.90;;;6.50;;
12591;SDS011;6361;52.120;5.108;2023-09-07T01:26:27;9.52;;;6.60;;
12591;SDS011;6361;52.120;5.108;2023-09-07T01:28:53;8.02;;;6.20;;
12591;SDS011;6361;52.120;5.108;2023-09-07T01:31:18;8.27;;;6.60;;
12591;SDS011;6361;52.120;5.108;2023-09-07T01:33:44;7.38;;;6.10;;
12591;SDS011;6361;52.120;5.108;2023-09-07T01:36:09;8.75;;;5.70;;
12591;SDS011;6361;52.120;5.108;2023-09-07T01:38:35;10.50;;;6.53;;
12591;SDS011;6361;52.120;5.108;2023-09-07T01:41:00;7.85;;;6.43;;
12591;SDS011;6361;52.120;5.108;2023-09-07T01:43:25;7.00;;;6.30;;
12591;SDS011;6361;52.120;5.108;2023-09-07T01:45:51;6.72;;;6.00;;
12591;SDS011;6361;52.120;5.108;2023-09-07T01:48:16;7.60;;;6.45;;
12591;SDS011;6361;52.120;5.108;2023-09-07T01:50:42;8.13;;;7.00;;
12591;SDS011;6361;52.120;5.108;2023-09-07T01:53:07;9.23;;;7.35;;
12591;SDS011;6361;52.120;5.108;2023-09-07T01:55:32;8.05;;;6.82;;
12591;SDS011;6361;52.120;5.108;2023-09-07T01:57:58;6.82;;;5.93;;
12591;SDS011;6361;52.120;5.108;2023-09-07T02:00:23;8.65;;;5.93;;
12591;SDS011;6361;52.120;5.108;2023-09-07T02:02:49;7.88;;;6.60;;
12591;SDS011;6361;52.120;5.108;2023-09-07T02:05:14;9.32;;;6.40;;
12591;SDS011;6361;52.120;5.108;2023-09-07T02:07:39;11.23;;;6.60;;
12591;SDS011;6361;52.120;5.108;2023-09-07T02:10:05;8.02;;;6.82;;
12591;SDS011;6361;52.120;5.108;2023-09-07T02:12:31;9.55;;;6.65;;
12591;SDS011;6361;52.120;5.108;2023-09-07T02:14:56;8.80;;;6.95;;
12591;SDS011;6361;52.120;5.108;2023-09-07T02:17:22;10.52;;;6.85;;
12591;SDS011;6361;52.120;5.108;2023-09-07T02:19:48;9.43;;;6.28;;
12591;SDS011;6361;52.120;5.108;2023-09-07T02:22:13;7.80;;;6.30;;
12591;SDS011;6361;52.120;5.108;2023-09-07T02:24:38;8.00;;;6.82;;
12591;SDS011;6361;52.120;5.108;2023-09-07T02:27:04;8.43;;;6.20;;
12591;SDS011;6361;52.120;5.108;2023-09-07T02:29:29;9.95;;;6.80;;
12591;SDS011;6361;52.120;5.108;2023-09-07T02:31:54;9.18;;;6.40;;
12591;SDS011;6361;52.120;5.108;2023-09-07T02:34:21;10.50;;;6.28;;
12591;SDS011;6361;52.120;5.108;2023-09-07T02:36:46;9.45;;;7.25;;
12591;SDS011;6361;52.120;5.108;2023-09-07T02:39:12;10.40;;;7.18;;
12591;SDS011;6361;52.120;5.108;2023-09-07T02:41:37;10.00;;;7.40;;
12591;SDS011;6361;52.120;5.108;2023-09-07T02:44:06;11.00;;;7.13;;
12591;SDS011;6361;52.120;5.108;2023-09-07T02:46:31;8.50;;;7.20;;
12591;SDS011;6361;52.120;5.108;2023-09-07T02:48:57;7.63;;;6.80;;
12591;SDS011;6361;52.120;5.108;2023-09-07T02:51:25;10.52;;;7.07;;
12591;SDS011;6361;52.120;5.108;2023-09-07T02:53:51;9.52;;;7.90;;
12591;SDS011;6361;52.120;5.108;2023-09-07T02:56:16;8.38;;;7.50;;
12591;SDS011;6361;52.120;5.108;2023-09-07T02:58:42;9.82;;;8.13;;
12591;SDS011;6361;52.120;5.108;2023-09-07T03:01:08;12.23;;;7.32;;
12591;SDS011;6361;52.120;5.108;2023-09-07T03:03:34;8.10;;;7.00;;
12591;SDS011;6361;52.120;5.108;2023-09-07T03:06:07;8.80;;;6.65;;
12591;SDS011;6361;52.120;5.108;2023-09-07T03:08:35;11.25;;;7.88;;
12591;SDS011;6361;52.120;5.108;2023-09-07T03:11:04;11.25;;;7.80;;
12591;SDS011;6361;52.120;5.108;2023-09-07T03:13:30;11.68;;;7.97;;
12591;SDS011;6361;52.120;5.108;2023-09-07T03:15:56;10.43;;;6.97;;
12591;SDS011;6361;52.120;5.108;2023-09-07T03:18:22;8.02;;;7.20;;
12591;SDS011;6361;52.120;5.108;2023-09-07T03:20:47;9.02;;;7.28;;
12591;SDS011;6361;52.120;5.108;2023-09-07T03:23:12;8.30;;;7.40;;
12591;SDS011;6361;52.120;5.108;2023-09-07T03:25:38;8.57;;;7.25;;
12591;SDS011;6361;52.120;5.108;2023-09-07T03:28:03;14.55;;;7.90;;
12591;SDS011;6361;52.120;5.108;2023-09-07T03:30:29;11.27;;;7.93;;
12591;SDS011;6361;52.120;5.108;2023-09-07T03:32:54;11.05;;;8.00;;
12591;SDS011;6361;52.120;5.108;2023-09-07T03:35:20;8.05;;;7.25;;
12591;SDS011;6361;52.120;5.108;2023-09-07T03:37:45;10.88;;;7.63;;
12591;SDS011;6361;52.120;5.108;2023-09-07T03:40:11;9.85;;;7.18;;
12591;SDS011;6361;52.120;5.108;2023-09-07T03:42:36;10.13;;;7.60;;
12591;SDS011;6361;52.120;5.108;2023-09-07T03:45:02;10.32;;;7.68;;
12591;SDS011;6361;52.120;5.108;2023-09-07T03:47:28;11.18;;;7.68;;
12591;SDS011;6361;52.120;5.108;2023-09-07T03:49:54;11.88;;;8.23;;
12591;SDS011;6361;52.120;5.108;2023-09-07T03:52:21;7.85;;;7.05;;
12591;SDS011;6361;52.120;5.108;2023-09-07T03:54:49;8.75;;;7.22;;
12591;SDS011;6361;52.120;5.108;2023-09-07T03:57:21;9.85;;;7.53;;
12591;SDS011;6361;52.120;5.108;2023-09-07T03:59:47;10.35;;;7.15;;
12591;SDS011;6361;52.120;5.108;2023-09-07T04:02:12;10.70;;;7.70;;
12591;SDS011;6361;52.120;5.108;2023-09-07T04:04:38;11.70;;;7.78;;
12591;SDS011;6361;52.120;5.108;2023-09-07T04:07:03;11.00;;;8.10;;
12591;SDS011;6361;52.120;5.108;2023-09-07T04:09:29;13.52;;;7.45;;
12591;SDS011;6361;52.120;5.108;2023-09-07T04:11:54;12.60;;;8.57;;
12591;SDS011;6361;52.120;5.108;2023-09-07T04:14:20;10.48;;;7.75;;
12591;SDS011;6361;52.120;5.108;2023-09-07T04:16:45;9.98;;;8.50;;
12591;SDS011;6361;52.120;5.108;2023-09-07T04:19:11;9.85;;;8.40;;
12591;SDS011;6361;52.120;5.108;2023-09-07T04:21:36;11.90;;;8.50;;
12591;SDS011;6361;52.120;5.108;2023-09-07T04:24:03;9.82;;;8.20;;
12591;SDS011;6361;52.120;5.108;2023-09-07T04:26:29;12.95;;;8.98;;
12591;SDS011;6361;52.120;5.108;2023-09-07T04:28:54;10.02;;;8.05;;
12591;SDS011;6361;52.120;5.108;2023-09-07T04:31:19;10.13;;;8.52;;
12591;SDS011;6361;52.120;5.108;2023-09-07T04:33:46;10.60;;;9.02;;
12591;SDS011;6361;52.120;5.108;2023-09-07T04:36:12;10.23;;;8.60;;
12591;SDS011;6361;52.120;5.108;2023-09-07T04:38:40;11.73;;;8.20;;
12591;SDS011;6361;52.120;5.108;2023-09-07T04:43:31;10.35;;;8.95;;
12591;SDS011;6361;52.120;5.108;2023-09-07T04:45:57;16.20;;;9.02;;
12591;SDS011;6361;52.120;5.108;2023-09-07T04:48:22;11.27;;;8.55;;
12591;SDS011;6361;52.120;5.108;2023-09-07T04:50:48;12.60;;;8.68;;
12591;SDS011;6361;52.120;5.108;2023-09-07T04:53:13;17.45;;;9.60;;
12591;SDS011;6361;52.120;5.108;2023-09-07T04:55:38;12.65;;;8.57;;
12591;SDS011;6361;52.120;5.108;2023-09-07T04:58:04;13.80;;;8.85;;
12591;SDS011;6361;52.120;5.108;2023-09-07T05:00:29;11.55;;;8.80;;
12591;SDS011;6361;52.120;5.108;2023-09-07T05:02:54;10.70;;;9.13;;
12591;SDS011;6361;52.120;5.108;2023-09-07T05:07:47;12.88;;;9.32;;
12591;SDS011;6361;52.120;5.108;2023-09-07T05:10:12;12.48;;;9.48;;
12591;SDS011;6361;52.120;5.108;2023-09-07T05:12:38;12.40;;;9.32;;
12591;SDS011;6361;52.120;5.108;2023-09-07T05:15:04;13.10;;;9.40;;
12591;SDS011;6361;52.120;5.108;2023-09-07T05:17:32;11.30;;;9.15;;
12591;SDS011;6361;52.120;5.108;2023-09-07T05:19:57;11.82;;;9.05;;
12591;SDS011;6361;52.120;5.108;2023-09-07T05:22:23;13.25;;;9.30;;
12591;SDS011;6361;52.120;5.108;2023-09-07T05:24:48;14.30;;;9.43;;
12591;SDS011;6361;52.120;5.108;2023-09-07T05:27:14;10.00;;;8.57;;
12591;SDS011;6361;52.120;5.108;2023-09-07T05:29:40;12.98;;;9.65;;
12591;SDS011;6361;52.120;5.108;2023-09-07T05:32:05;11.88;;;8.57;;
12591;SDS011;6361;52.120;5.108;2023-09-07T05:34:31;12.57;;;8.82;;
12591;SDS011;6361;52.120;5.108;2023-09-07T05:36:56;14.00;;;9.70;;
12591;SDS011;6361;52.120;5.108;2023-09-07T05:39:22;12.77;;;10.05;;
12591;SDS011;6361;52.120;5.108;2023-09-07T05:41:49;14.90;;;9.70;;
12591;SDS011;6361;52.120;5.108;2023-09-07T05:44:14;15.52;;;9.80;;
12591;SDS011;6361;52.120;5.108;2023-09-07T05:46:40;30.05;;;11.98;;
12591;SDS011;6361;52.120;5.108;2023-09-07T05:49:05;31.30;;;10.95;;
12591;SDS011;6361;52.120;5.108;2023-09-07T05:51:30;30.08;;;11.70;;
12591;SDS011;6361;52.120;5.108;2023-09-07T05:53:56;24.63;;;11.20;;
12591;SDS011;6361;52.120;5.108;2023-09-07T05:56:21;18.52;;;10.13;;
12591;SDS011;6361;52.120;5.108;2023-09-07T05:58:46;19.23;;;10.18;;
12591;SDS011;6361;52.120;5.108;2023-09-07T06:01:12;13.98;;;9.70;;
12591;SDS011;6361;52.120;5.108;2023-09-07T06:03:37;17.70;;;12.02;;
12591;SDS011;6361;52.120;5.108;2023-09-07T06:06:04;17.95;;;13.60;;
12591;SDS011;6361;52.120;5.108;2023-09-07T06:08:29;13.05;;;10.60;;
12591;SDS011;6361;52.120;5.108;2023-09-07T06:10:55;10.50;;;9.35;;
12591;SDS011;6361;52.120;5.108;2023-09-07T06:13:20;15.07;;;9.95;;
12591;SDS011;6361;52.120;5.108;2023-09-07T06:15:45;15.77;;;9.95;;
12591;SDS011;6361;52.120;5.108;2023-09-07T06:18:11;18.33;;;10.38;;
12591;SDS011;6361;52.120;5.108;2023-09-07T06:20:36;12.35;;;9.10;;
12591;SDS011;6361;52.120;5.108;2023-09-07T06:23:02;13.32;;;9.48;;
12591;SDS011;6361;52.120;5.108;2023-09-07T06:25:27;15.50;;;9.98;;
12591;SDS011;6361;52.120;5.108;2023-09-07T06:27:53;13.95;;;10.18;;
12591;SDS011;6361;52.120;5.108;2023-09-07T06:30:20;15.73;;;8.95;;
12591;SDS011;6361;52.120;5.108;2023-09-07T06:32:46;12.57;;;9.48;;
12591;SDS011;6361;52.120;5.108;2023-09-07T06:35:13;13.75;;;8.95;;
12591;SDS011;6361;52.120;5.108;2023-09-07T06:37:39;13.60;;;9.23;;
12591;SDS011;6361;52.120;5.108;2023-09-07T06:40:06;16.98;;;9.20;;
12591;SDS011;6361;52.120;5.108;2023-09-07T06:42:32;14.55;;;9.52;;
12591;SDS011;6361;52.120;5.108;2023-09-07T06:44:57;16.42;;;12.50;;
12591;SDS011;6361;52.120;5.108;2023-09-07T06:47:23;16.10;;;11.05;;
12591;SDS011;6361;52.120;5.108;2023-09-07T06:49:48;13.02;;;10.50;;
12591;SDS011;6361;52.120;5.108;2023-09-07T06:52:13;12.25;;;9.20;;
12591;SDS011;6361;52.120;5.108;2023-09-07T06:54:40;13.60;;;9.57;;
12591;SDS011;6361;52.120;5.108;2023-09-07T06:57:08;11.88;;;8.93;;
12591;SDS011;6361;52.120;5.108;2023-09-07T06:59:34;13.13;;;8.82;;
12591;SDS011;6361;52.120;5.108;2023-09-07T07:02:00;13.52;;;9.00;;
12591;SDS011;6361;52.120;5.108;2023-09-07T07:04:25;13.80;;;9.80;;
12591;SDS011;6361;52.120;5.108;2023-09-07T07:06:51;15.20;;;9.30;;
12591;SDS011;6361;52.120;5.108;2023-09-07T07:09:16;13.20;;;9.18;;
12591;SDS011;6361;52.120;5.108;2023-09-07T07:11:41;14.57;;;8.77;;
12591;SDS011;6361;52.120;5.108;2023-09-07T07:14:08;15.43;;;9.35;;
12591;SDS011;6361;52.120;5.108;2023-09-07T07:16:34;10.25;;;8.05;;
12591;SDS011;6361;52.120;5.108;2023-09-07T07:18:59;15.32;;;8.20;;
12591;SDS011;6361;52.120;5.108;2023-09-07T07:21:25;14.35;;;8.75;;
12591;SDS011;6361;52.120;5.108;2023-09-07T07:23:50;10.82;;;7.63;;
12591;SDS011;6361;52.120;5.108;2023-09-07T07:26:16;9.77;;;7.70;;
12591;SDS011;6361;52.120;5.108;2023-09-07T07:28:42;12.00;;;7.32;;
12591;SDS011;6361;52.120;5.108;2023-09-07T07:31:08;13.85;;;7.43;;
12591;SDS011;6361;52.120;5.108;2023-09-07T07:33:34;11.90;;;7.35;;
12591;SDS011;6361;52.120;5.108;2023-09-07T07:36:00;19.67;;;6.97;;
12591;SDS011;6361;52.120;5.108;2023-09-07T07:38:25;12.23;;;7.28;;
12591;SDS011;6361;52.120;5.108;2023-09-07T07:40:50;11.35;;;6.95;;
12591;SDS011;6361;52.120;5.108;2023-09-07T07:43:17;8.90;;;6.72;;
12591;SDS011;6361;52.120;5.108;2023-09-07T07:55:48;11.10;;;6.35;;
12591;SDS011;6361;52.120;5.108;2023-09-07T07:58:14;10.13;;;5.72;;
12591;SDS011;6361;52.120;5.108;2023-09-07T08:00:39;9.85;;;5.70;;
12591;SDS011;6361;52.120;5.108;2023-09-07T08:03:12;7.88;;;5.50;;
12591;SDS011;6361;52.120;5.108;2023-09-07T08:05:37;9.75;;;5.40;;
12591;SDS011;6361;52.120;5.108;2023-09-07T08:08:04;10.02;;;5.80;;
12591;SDS011;6361;52.120;5.108;2023-09-07T08:10:33;8.23;;;5.20;;
12591;SDS011;6361;52.120;5.108;2023-09-07T08:12:59;8.57;;;5.53;;
12591;SDS011;6361;52.120;5.108;2023-09-07T08:15:24;16.88;;;10.57;;
12591;SDS011;6361;52.120;5.108;2023-09-07T08:17:50;9.50;;;6.65;;
12591;SDS011;6361;52.120;5.108;2023-09-07T08:20:16;9.73;;;6.43;;
12591;SDS011;6361;52.120;5.108;2023-09-07T08:22:41;6.85;;;5.38;;
12591;SDS011;6361;52.120;5.108;2023-09-07T08:25:10;10.10;;;5.03;;
12591;SDS011;6361;52.120;5.108;2023-09-07T08:27:36;10.25;;;5.40;;
12591;SDS011;6361;52.120;5.108;2023-09-07T08:30:02;7.72;;;5.10;;
12591;SDS011;6361;52.120;5.108;2023-09-07T08:32:28;8.38;;;5.47;;
12591;SDS011;6361;52.120;5.108;2023-09-07T08:34:55;11.30;;;5.90;;
12591;SDS011;6361;52.120;5.108;2023-09-07T08:37:24;9.82;;;6.20;;
12591;SDS011;6361;52.120;5.108;2023-09-07T08:39:50;11.38;;;6.55;;
12591;SDS011;6361;52.120;5.108;2023-09-07T08:42:15;15.80;;;8.45;;
12591;SDS011;6361;52.120;5.108;2023-09-07T08:44:41;8.63;;;5.30;;
12591;SDS011;6361;52.120;5.108;2023-09-07T08:47:07;6.53;;;4.47;;
12591;SDS011;6361;52.120;5.108;2023-09-07T08:49:33;5.72;;;4.32;;
12591;SDS011;6361;52.120;5.108;2023-09-07T08:51:59;6.90;;;4.47;;
12591;SDS011;6361;52.120;5.108;2023-09-07T08:54:25;7.50;;;4.63;;
12591;SDS011;6361;52.120;5.108;2023-09-07T08:56:51;11.20;;;4.18;;
12591;SDS011;6361;52.120;5.108;2023-09-07T08:59:16;6.82;;;4.00;;
12591;SDS011;6361;52.120;5.108;2023-09-07T09:01:42;6.88;;;4.10;;
12591;SDS011;6361;52.120;5.108;2023-09-07T09:04:08;8.57;;;4.03;;
12591;SDS011;6361;52.120;5.108;2023-09-07T09:06:33;8.63;;;4.30;;
12591;SDS011;6361;52.120;5.108;2023-09-07T09:08:59;5.35;;;3.90;;
12591;SDS011;6361;52.120;5.108;2023-09-07T09:11:24;8.65;;;4.53;;
12591;SDS011;6361;52.120;5.108;2023-09-07T09:13:51;7.88;;;4.45;;
12591;SDS011;6361;52.120;5.108;2023-09-07T09:16:17;8.70;;;4.70;;
12591;SDS011;6361;52.120;5.108;2023-09-07T09:18:50;12.23;;;4.57;;
12591;SDS011;6361;52.120;5.108;2023-09-07T09:21:20;5.43;;;4.20;;
12591;SDS011;6361;52.120;5.108;2023-09-07T09:23:50;7.63;;;4.93;;
12591;SDS011;6361;52.120;5.108;2023-09-07T09:26:16;7.00;;;4.82;;
12591;SDS011;6361;52.120;5.108;2023-09-07T09:28:42;7.25;;;4.45;;
12591;SDS011;6361;52.120;5.108;2023-09-07T09:31:08;5.25;;;4.07;;
12591;SDS011;6361;52.120;5.108;2023-09-07T09:33:37;7.90;;;4.15;;
12591;SDS011;6361;52.120;5.108;2023-09-07T09:36:03;6.38;;;4.10;;
12591;SDS011;6361;52.120;5.108;2023-09-07T09:38:29;4.50;;;3.97;;
12591;SDS011;6361;52.120;5.108;2023-09-07T09:40:57;8.80;;;3.83;;
12591;SDS011;6361;52.120;5.108;2023-09-07T09:43:23;9.05;;;4.20;;
12591;SDS011;6361;52.120;5.108;2023-09-07T09:45:50;8.35;;;4.03;;
12591;SDS011;6361;52.120;5.108;2023-09-07T09:48:16;5.53;;;3.83;;
12591;SDS011;6361;52.120;5.108;2023-09-07T09:50:41;4.68;;;3.70;;
12591;SDS011;6361;52.120;5.108;2023-09-07T09:53:08;7.18;;;4.05;;
12591;SDS011;6361;52.120;5.108;2023-09-07T09:55:35;4.72;;;3.97;;
12591;SDS011;6361;52.120;5.108;2023-09-07T09:58:00;6.85;;;4.78;;
12591;SDS011;6361;52.120;5.108;2023-09-07T10:00:27;5.95;;;4.20;;
12591;SDS011;6361;52.120;5.108;2023-09-07T10:05:41;5.57;;;3.70;;
12591;SDS011;6361;52.120;5.108;2023-09-07T10:08:11;9.70;;;4.28;;
12591;SDS011;6361;52.120;5.108;2023-09-07T10:10:38;6.35;;;4.10;;
12591;SDS011;6361;52.120;5.108;2023-09-07T10:13:04;8.38;;;3.97;;
12591;SDS011;6361;52.120;5.108;2023-09-07T10:15:30;8.32;;;4.15;;
12591;SDS011;6361;52.120;5.108;2023-09-07T10:20:57;8.55;;;4.30;;
12591;SDS011;6361;52.120;5.108;2023-09-07T10:23:34;5.20;;;4.13;;
12591;SDS011;6361;52.120;5.108;2023-09-07T10:26:03;7.78;;;4.18;;
12591;SDS011;6361;52.120;5.108;2023-09-07T10:28:29;6.30;;;3.97;;
12591;SDS011;6361;52.120;5.108;2023-09-07T10:31:12;7.45;;;4.30;;
12591;SDS011;6361;52.120;5.108;2023-09-07T10:33:39;5.40;;;4.10;;
12591;SDS011;6361;52.120;5.108;2023-09-07T10:36:04;8.38;;;4.43;;
12591;SDS011;6361;52.120;5.108;2023-09-07T10:38:31;7.38;;;4.60;;
12591;SDS011;6361;52.120;5.108;2023-09-07T10:40:57;8.90;;;4.10;;
12591;SDS011;6361;52.120;5.108;2023-09-07T10:43:27;5.68;;;4.32;;
12591;SDS011;6361;52.120;5.108;2023-09-07T10:45:56;5.95;;;4.43;;
12591;SDS011;6361;52.120;5.108;2023-09-07T10:48:22;5.57;;;4.20;;
12591;SDS011;6361;52.120;5.108;2023-09-07T10:50:49;7.43;;;4.20;;
12591;SDS011;6361;52.120;5.108;2023-09-07T10:53:23;4.95;;;4.10;;
12591;SDS011;6361;52.120;5.108;2023-09-07T10:55:50;4.30;;;3.90;;
12591;SDS011;6361;52.120;5.108;2023-09-07T10:58:24;8.40;;;4.63;;
12591;SDS011;6361;52.120;5.108;2023-09-07T11:00:59;5.13;;;4.30;;
12591;SDS011;6361;52.120;5.108;2023-09-07T11:03:26;7.20;;;4.40;;
12591;SDS011;6361;52.120;5.108;2023-09-07T11:08:29;7.57;;;4.90;;
12591;SDS011;6361;52.120;5.108;2023-09-07T11:10:55;9.18;;;4.45;;
12591;SDS011;6361;52.120;5.108;2023-09-07T11:13:21;5.05;;;4.45;;
12591;SDS011;6361;52.120;5.108;2023-09-07T11:15:47;8.82;;;4.30;;
12591;SDS011;6361;52.120;5.108;2023-09-07T11:18:12;8.82;;;4.55;;
12591;SDS011;6361;52.120;5.108;2023-09-07T11:20:44;6.57;;;4.50;;
12591;SDS011;6361;52.120;5.108;2023-09-07T11:23:10;5.80;;;4.03;;
12591;SDS011;6361;52.120;5.108;2023-09-07T11:25:36;9.40;;;5.07;;
12591;SDS011;6361;52.120;5.108;2023-09-07T11:28:03;8.40;;;5.10;;
12591;SDS011;6361;52.120;5.108;2023-09-07T11:30:30;5.88;;;4.70;;
12591;SDS011;6361;52.120;5.108;2023-09-07T11:33:02;6.07;;;4.40;;
12591;SDS011;6361;52.120;5.108;2023-09-07T11:35:29;8.57;;;5.35;;
12591;SDS011;6361;52.120;5.108;2023-09-07T11:37:59;9.38;;;5.47;;
12591;SDS011;6361;52.120;5.108;2023-09-07T11:40:25;6.60;;;4.90;;
12591;SDS011;6361;52.120;5.108;2023-09-07T11:42:50;10.95;;;5.78;;
12591;SDS011;6361;52.120;5.108;2023-09-07T11:45:16;6.80;;;4.78;;
12591;SDS011;6361;52.120;5.108;2023-09-07T11:47:43;5.57;;;4.07;;
12591;SDS011;6361;52.120;5.108;2023-09-07T11:50:10;8.25;;;4.80;;
12591;SDS011;6361;52.120;5.108;2023-09-07T11:52:35;7.57;;;4.10;;
12591;SDS011;6361;52.120;5.108;2023-09-07T11:55:00;7.38;;;4.80;;
12591;SDS011;6361;52.120;5.108;2023-09-07T11:57:28;8.88;;;4.68;;
12591;SDS011;6361;52.120;5.108;2023-09-07T11:59:54;11.15;;;5.07;;
12591;SDS011;6361;52.120;5.108;2023-09-07T12:02:19;5.25;;;4.68;;
12591;SDS011;6361;52.120;5.108;2023-09-07T12:04:46;8.48;;;5.35;;
12591;SDS011;6361;52.120;5.108;2023-09-07T12:07:12;6.85;;;4.55;;
12591;SDS011;6361;52.120;5.108;2023-09-07T12:09:38;7.18;;;4.40;;
12591;SDS011;6361;52.120;5.108;2023-09-07T12:12:03;7.85;;;4.88;;
12591;SDS011;6361;52.120;5.108;2023-09-07T12:14:29;6.85;;;5.28;;
12591;SDS011;6361;52.120;5.108;2023-09-07T12:16:54;8.55;;;4.68;;
12591;SDS011;6361;52.120;5.108;2023-09-07T12:19:20;5.95;;;4.50;;
12591;SDS011;6361;52.120;5.108;2023-09-07T12:21:45;5.28;;;4.60;;
12591;SDS011;6361;52.120;5.108;2023-09-07T12:24:10;7.57;;;4.50;;
12591;SDS011;6361;52.120;5.108;2023-09-07T12:26:37;9.88;;;5.13;;
12591;SDS011;6361;52.120;5.108;2023-09-07T12:29:03;8.38;;;4.97;;
12591;SDS011;6361;52.120;5.108;2023-09-07T12:31:29;8.38;;;4.85;;
12591;SDS011;6361;52.120;5.108;2023-09-07T12:33:56;6.57;;;4.90;;
12591;SDS011;6361;52.120;5.108;2023-09-07T12:36:22;7.50;;;4.80;;
12591;SDS011;6361;52.120;5.108;2023-09-07T12:38:47;5.88;;;4.40;;
12591;SDS011;6361;52.120;5.108;2023-09-07T12:41:12;6.45;;;4.55;;
12591;SDS011;6361;52.120;5.108;2023-09-07T12:43:38;6.40;;;4.85;;
12591;SDS011;6361;52.120;5.108;2023-09-07T12:46:04;6.60;;;4.30;;
12591;SDS011;6361;52.120;5.108;2023-09-07T12:48:29;5.65;;;4.47;;
12591;SDS011;6361;52.120;5.108;2023-09-07T12:50:54;9.23;;;4.75;;
12591;SDS011;6361;52.120;5.108;2023-09-07T12:53:20;5.85;;;4.50;;
12591;SDS011;6361;52.120;5.108;2023-09-07T12:55:50;7.70;;;4.93;;
12591;SDS011;6361;52.120;5.108;2023-09-07T12:58:16;7.47;;;4.28;;
12591;SDS011;6361;52.120;5.108;2023-09-07T13:00:42;7.88;;;4.10;;
12591;SDS011;6361;52.120;5.108;2023-09-07T13:03:07;5.50;;;4.45;;
12591;SDS011;6361;52.120;5.108;2023-09-07T13:05:33;7.88;;;4.60;;
12591;SDS011;6361;52.120;5.108;2023-09-07T13:07:58;5.80;;;4.70;;
12591;SDS011;6361;52.120;5.108;2023-09-07T13:10:24;8.63;;;4.70;;
12591;SDS011;6361;52.120;5.108;2023-09-07T13:12:50;8.15;;;4.32;;
12591;SDS011;6361;52.120;5.108;2023-09-07T13:15:15;5.25;;;4.20;;
12591;SDS011;6361;52.120;5.108;2023-09-07T13:17:41;7.55;;;4.75;;
12591;SDS011;6361;52.120;5.108;2023-09-07T13:20:06;5.72;;;4.55;;
12591;SDS011;6361;52.120;5.108;2023-09-07T13:22:32;12.25;;;4.60;;
12591;SDS011;6361;52.120;5.108;2023-09-07T13:24:57;7.40;;;4.68;;
12591;SDS011;6361;52.120;5.108;2023-09-07T13:27:23;7.03;;;4.30;;
12591;SDS011;6361;52.120;5.108;2023-09-07T13:29:50;5.53;;;4.50;;
12591;SDS011;6361;52.120;5.108;2023-09-07T13:32:16;7.43;;;4.80;;
12591;SDS011;6361;52.120;5.108;2023-09-07T13:34:42;7.32;;;4.70;;
12591;SDS011;6361;52.120;5.108;2023-09-07T13:37:07;7.47;;;4.50;;
12591;SDS011;6361;52.120;5.108;2023-09-07T13:39:33;6.25;;;4.78;;
12591;SDS011;6361;52.120;5.108;2023-09-07T13:41:58;8.30;;;4.45;;
12591;SDS011;6361;52.120;5.108;2023-09-07T13:44:23;9.32;;;4.35;;
12591;SDS011;6361;52.120;5.108;2023-09-07T13:46:49;6.35;;;4.22;;
12591;SDS011;6361;52.120;5.108;2023-09-07T13:49:14;7.72;;;4.43;;
12591;SDS011;6361;52.120;5.108;2023-09-07T13:51:40;7.75;;;4.85;;
12591;SDS011;6361;52.120;5.108;2023-09-07T13:54:06;7.82;;;4.40;;
12591;SDS011;6361;52.120;5.108;2023-09-07T13:56:33;8.45;;;4.65;;
12591;SDS011;6361;52.120;5.108;2023-09-07T13:58:58;5.95;;;4.72;;
12591;SDS011;6361;52.120;5.108;2023-09-07T14:01:24;6.32;;;4.70;;
12591;SDS011;6361;52.120;5.108;2023-09-07T14:03:50;8.18;;;4.40;;
12591;SDS011;6361;52.120;5.108;2023-09-07T14:06:15;5.88;;;4.20;;
12591;SDS011;6361;52.120;5.108;2023-09-07T14:08:42;9.70;;;4.90;;
12591;SDS011;6361;52.120;5.108;2023-09-07T14:11:09;7.45;;;4.35;;
12591;SDS011;6361;52.120;5.108;2023-09-07T14:13:34;6.13;;;4.68;;
12591;SDS011;6361;52.120;5.108;2023-09-07T14:16:00;7.22;;;4.20;;
12591;SDS011;6361;52.120;5.108;2023-09-07T14:18:25;7.10;;;4.80;;
12591;SDS011;6361;52.120;5.108;2023-09-07T14:20:51;7.72;;;4.68;;
12591;SDS011;6361;52.120;5.108;2023-09-07T14:23:17;10.73;;;4.78;;
12591;SDS011;6361;52.120;5.108;2023-09-07T14:25:42;5.75;;;4.53;;
12591;SDS011;6361;52.120;5.108;2023-09-07T14:28:10;8.65;;;4.95;;
12591;SDS011;6361;52.120;5.108;2023-09-07T14:30:35;7.70;;;4.75;;
12591;SDS011;6361;52.120;5.108;2023-09-07T14:33:01;5.60;;;4.53;;
12591;SDS011;6361;52.120;5.108;2023-09-07T14:35:26;6.18;;;4.40;;
12591;SDS011;6361;52.120;5.108;2023-09-07T14:37:51;6.93;;;4.50;;
12591;SDS011;6361;52.120;5.108;2023-09-07T14:40:17;7.20;;;4.38;;
12591;SDS011;6361;52.120;5.108;2023-09-07T14:42:44;8.70;;;4.88;;
12591;SDS011;6361;52.120;5.108;2023-09-07T14:45:09;7.50;;;4.47;;
12591;SDS011;6361;52.120;5.108;2023-09-07T14:47:35;5.90;;;4.40;;
12591;SDS011;6361;52.120;5.108;2023-09-07T14:50:00;6.22;;;4.90;;
12591;SDS011;6361;52.120;5.108;2023-09-07T14:52:26;7.72;;;4.63;;
12591;SDS011;6361;52.120;5.108;2023-09-07T14:54:52;7.88;;;5.53;;
12591;SDS011;6361;52.120;5.108;2023-09-07T14:57:17;7.90;;;4.88;;
12591;SDS011;6361;52.120;5.108;2023-09-07T14:59:43;8.00;;;4.63;;
12591;SDS011;6361;52.120;5.108;2023-09-07T15:02:08;7.03;;;4.60;;
12591;SDS011;6361;52.120;5.108;2023-09-07T15:04:34;7.22;;;4.13;;
12591;SDS011;6361;52.120;5.108;2023-09-07T15:07:00;9.18;;;4.45;;
12591;SDS011;6361;52.120;5.108;2023-09-07T15:09:26;6.65;;;4.50;;
12591;SDS011;6361;52.120;5.108;2023-09-07T15:11:51;7.22;;;4.50;;